createdAt,value
2022-10-08T00:02:03.928Z,97525.72
2022-10-08T00:07:07.880Z,97525.44
2022-10-08T00:12:11.537Z,97528.75
2022-10-08T00:17:14.973Z,97533.91
2022-10-08T00:22:18.912Z,97523.91
2022-10-08T00:27:22.493Z,97517.94
2022-10-08T00:32:25.872Z,97515.53
2022-10-08T00:37:29.229Z,97508.19
2022-10-08T00:42:32.667Z,97507.09
2022-10-08T00:47:42.134Z,97506.53
2022-10-08T00:52:55.977Z,97497.84
2022-10-08T00:58:09.788Z,97502.47
2022-10-08T01:03:13.646Z,97496.25
2022-10-08T01:08:45.865Z,97506.00
2022-10-08T01:13:53.221Z,97506.28
2022-10-08T01:19:30.376Z,97498.97
2022-10-08T01:24:49.755Z,97488.69
2022-10-08T01:29:55.352Z,97494.38
2022-10-08T01:35:03.392Z,97485.19
2022-10-08T01:40:12.782Z,97482.47
2022-10-08T01:45:26.488Z,97480.06
2022-10-08T01:50:48.706Z,97486.28
2022-10-08T01:55:54.409Z,97491.97
2022-10-08T02:01:07.819Z,97493.06
2022-10-08T02:06:11.270Z,97494.16
2022-10-08T02:11:15.088Z,97501.22
2022-10-08T02:16:28.838Z,97503.13
2022-10-08T02:21:34.328Z,97510.44
2022-10-08T02:26:44.888Z,97503.94
2022-10-08T02:31:56.474Z,97506.63
2022-10-08T02:37:14.921Z,97511.25
2022-10-08T02:42:23.293Z,97506.13
2022-10-08T02:47:30.956Z,97505.31
2022-10-08T02:52:38.192Z,97507.22
2022-10-08T02:57:45.374Z,97504.75
2022-10-08T03:02:58.917Z,97506.13
2022-10-08T03:08:02.579Z,97507.75
2022-10-08T03:13:07.790Z,97506.91
2022-10-08T03:18:12.456Z,97509.03
2022-10-08T03:23:18.645Z,97515.53
2022-10-08T03:28:22.412Z,97504.38
2022-10-08T03:33:25.709Z,97504.91
2022-10-08T03:38:29.679Z,97501.94
2022-10-08T03:43:34.207Z,97507.06
2022-10-08T03:48:38.254Z,97499.72
2022-10-08T03:53:43.557Z,97504.88
2022-10-08T03:58:52.335Z,97505.66
2022-10-08T04:03:56.397Z,97510.00
2022-10-08T04:09:00.007Z,97508.13
2022-10-08T04:14:04.046Z,97513.28
2022-10-08T04:19:07.406Z,97521.63
2022-10-08T04:24:10.732Z,97523.22
2022-10-08T04:29:14.703Z,97534.84
2022-10-08T04:34:18.515Z,97536.72
2022-10-08T04:39:22.460Z,97538.34
2022-10-08T04:44:26.253Z,97540.44
2022-10-08T04:49:29.483Z,97539.00
2022-10-08T04:54:32.632Z,97546.75
2022-10-08T04:59:35.795Z,97546.34
2022-10-08T05:04:39.614Z,97543.03
2022-10-08T05:09:43.282Z,97548.03
2022-10-08T05:14:47.267Z,97553.31
2022-10-08T05:19:50.782Z,97556.44
2022-10-08T05:24:54.720Z,97566.81
2022-10-08T05:29:58.226Z,97574.91
2022-10-08T05:35:01.642Z,97564.03
2022-10-08T05:40:06.899Z,97576.88
2022-10-08T05:45:10.712Z,97578.47
2022-10-08T05:50:14.790Z,97579.72
2022-10-08T05:55:18.227Z,97582.78
2022-10-08T06:00:22.764Z,97592.19
2022-10-08T06:05:30.084Z,97594.66
2022-10-08T06:10:33.371Z,97603.63
2022-10-08T06:15:36.718Z,97595.16
2022-10-08T06:20:40.085Z,97594.25
2022-10-08T06:25:43.743Z,97598.66
2022-10-08T06:30:47.401Z,97605.31
2022-10-08T06:35:51.122Z,97604.91
2022-10-08T06:40:58.566Z,97608.53
2022-10-08T06:46:06.894Z,97604.97
2022-10-08T06:51:13.010Z,97602.63
2022-10-08T06:56:16.414Z,97609.53
2022-10-08T07:01:30.298Z,97610.44
2022-10-08T07:06:36.369Z,97617.13
2022-10-08T07:11:39.656Z,97616.16
2022-10-08T07:16:43.227Z,97613.91
2022-10-08T07:21:46.611Z,97626.13
2022-10-08T07:26:50.080Z,97610.84
2022-10-08T07:31:53.926Z,97610.31
2022-10-08T07:36:57.593Z,97608.59
2022-10-08T07:42:01.293Z,97608.47
2022-10-08T07:47:04.810Z,97615.16
2022-10-08T07:52:08.764Z,97616.16
2022-10-08T07:57:14.383Z,97612.34
2022-10-08T08:02:18.041Z,97611.25
2022-10-08T08:07:22.285Z,97611.94
2022-10-08T08:12:25.916Z,97609.88
2022-10-08T08:17:29.339Z,97613.63
2022-10-08T08:22:40.481Z,97603.66
2022-10-08T08:27:44.040Z,97598.56
2022-10-08T08:32:48.129Z,97595.31
2022-10-08T08:37:51.654Z,97584.41
2022-10-08T08:42:56.838Z,97587.63
2022-10-08T08:48:11.121Z,97574.56
2022-10-08T08:53:14.950Z,97574.25
2022-10-08T08:58:28.821Z,97569.97
2022-10-08T09:03:38.086Z,97564.38
2022-10-08T09:08:48.234Z,97554.38
2022-10-08T09:14:27.811Z,97554.28
2022-10-08T09:19:31.803Z,97535.78
2022-10-08T09:24:35.414Z,97537.66
2022-10-08T09:29:38.905Z,97534.44
2022-10-08T09:34:42.707Z,97536.50
2022-10-08T09:40:22.364Z,97543.56
2022-10-08T09:45:40.283Z,97531.97
2022-10-08T09:50:58.480Z,97527.03
2022-10-08T09:56:05.421Z,97525.91
2022-10-08T10:01:16.977Z,97525.09
2022-10-08T10:06:34.605Z,97531.81
2022-10-08T10:11:47.455Z,97518.59
2022-10-08T10:17:13.134Z,97515.81
2022-10-08T10:22:27.063Z,97517.47
2022-10-08T10:27:33.169Z,97512.53
2022-10-08T10:32:56.542Z,97508.81
2022-10-08T10:38:09.960Z,97503.69
2022-10-08T10:43:31.862Z,97500.28
2022-10-08T10:48:36.162Z,97489.47
2022-10-08T10:53:51.635Z,97481.09
2022-10-08T10:59:25.986Z,97482.56
2022-10-08T11:04:47.467Z,97494.59
2022-10-08T11:09:54.976Z,97491.50
2022-10-08T11:15:29.563Z,97479.41
2022-10-08T11:20:58.403Z,97485.50
2022-10-08T11:26:22.318Z,97485.19
2022-10-08T11:31:48.148Z,97485.50
2022-10-08T11:37:09.566Z,97474.38
2022-10-08T11:42:18.742Z,97479.72
2022-10-08T11:47:43.085Z,97476.25
2022-10-08T11:52:46.585Z,97476.47
2022-10-08T11:58:09.084Z,97476.19
2022-10-08T12:03:34.090Z,97482.72
2022-10-08T12:09:04.061Z,97469.03
2022-10-08T12:14:13.637Z,97475.03
2022-10-08T12:19:35.683Z,97475.06
2022-10-08T12:24:39.102Z,97477.00
2022-10-08T12:30:01.332Z,97495.00
2022-10-08T12:35:20.571Z,97479.19
2022-10-08T12:40:42.340Z,97480.63
2022-10-08T12:45:59.650Z,97482.25
2022-10-08T12:51:17.222Z,97479.44
2022-10-08T12:56:27.388Z,97475.78
2022-10-08T13:01:32.094Z,97480.25
2022-10-08T13:06:35.669Z,97466.31
2022-10-08T13:11:38.955Z,97472.91
2022-10-08T13:16:47.286Z,97474.38
2022-10-08T13:22:01.956Z,97465.63
2022-10-08T13:27:06.444Z,97467.03
2022-10-08T13:32:13.349Z,97469.22
2022-10-08T13:37:40.795Z,97466.06
2022-10-08T13:42:51.124Z,97470.38
2022-10-08T13:47:55.357Z,97489.69
2022-10-08T13:53:01.667Z,97483.97
2022-10-08T13:58:07.091Z,97492.09
2022-10-08T14:03:11.024Z,97499.13
2022-10-08T14:08:27.008Z,97502.50
2022-10-08T14:13:30.105Z,97501.09
2022-10-08T14:18:33.291Z,97502.63
2022-10-08T14:23:36.744Z,97507.50
2022-10-08T14:28:42.995Z,97511.63
2022-10-08T14:33:46.452Z,97507.59
2022-10-08T14:38:49.832Z,97507.66
2022-10-08T14:43:54.156Z,97515.75
2022-10-08T14:48:58.105Z,97523.13
2022-10-08T14:54:01.380Z,97523.84
2022-10-08T14:59:07.066Z,97522.13
2022-10-08T15:04:13.794Z,97530.78
2022-10-08T15:09:17.162Z,97523.09
2022-10-08T15:14:20.649Z,97527.81
2022-10-08T15:19:24.256Z,97533.94
2022-10-08T15:24:28.021Z,97536.03
2022-10-08T15:29:31.519Z,97534.81
2022-10-08T15:34:35.034Z,97537.31
2022-10-08T15:39:39.103Z,97545.56
2022-10-08T15:44:44.260Z,97552.72
2022-10-08T15:49:47.520Z,97553.91
2022-10-08T15:54:50.736Z,97552.38
2022-10-08T15:59:54.336Z,97551.31
2022-10-08T16:04:57.801Z,97564.44
2022-10-08T16:10:01.450Z,97569.94
2022-10-08T16:15:06.912Z,97560.75
2022-10-08T16:20:10.614Z,97566.78
2022-10-08T16:25:13.978Z,97566.56
2022-10-08T16:30:17.288Z,97572.03
2022-10-08T16:35:20.794Z,97571.03
2022-10-08T16:40:24.743Z,97582.78
2022-10-08T16:45:36.631Z,97586.09
2022-10-08T16:50:41.596Z,97594.84
2022-10-08T16:55:44.697Z,97591.91
2022-10-08T17:00:48.103Z,97606.88
2022-10-08T17:05:51.539Z,97609.09
2022-10-08T17:10:55.057Z,97617.56
2022-10-08T17:16:08.344Z,97615.91
2022-10-08T17:21:12.874Z,97629.53
2022-10-08T17:26:24.702Z,97628.72
2022-10-08T17:31:29.043Z,97629.00
2022-10-08T17:36:34.774Z,97639.38
2022-10-08T17:41:39.744Z,97649.47
2022-10-08T17:46:46.357Z,97648.06
2022-10-08T17:51:49.950Z,97647.19
2022-10-08T17:56:53.497Z,97655.56
2022-10-08T18:01:57.131Z,97653.41
2022-10-08T18:07:03.411Z,97662.44
2022-10-08T18:12:07.438Z,97660.56
2022-10-08T18:17:10.871Z,97661.66
2022-10-08T18:22:16.087Z,97657.38
2022-10-08T18:27:19.553Z,97662.81
2022-10-08T18:32:23.036Z,97659.59
2022-10-08T18:37:27.354Z,97659.06
2022-10-08T18:42:30.891Z,97662.88
2022-10-08T18:47:34.250Z,97669.47
2022-10-08T18:52:37.568Z,97663.00
2022-10-08T18:57:40.744Z,97665.19
2022-10-08T19:02:44.163Z,97664.41
2022-10-08T19:07:47.695Z,97659.56
2022-10-08T19:12:51.703Z,97666.13
2022-10-08T19:17:56.458Z,97672.09
2022-10-08T19:23:00.309Z,97661.81
2022-10-08T19:28:03.790Z,97666.44
2022-10-08T19:33:07.387Z,97671.88
2022-10-08T19:38:10.636Z,97667.81
2022-10-08T19:43:13.863Z,97673.25
2022-10-08T19:48:17.304Z,97670.84
2022-10-08T19:53:20.698Z,97674.34
2022-10-08T19:58:24.487Z,97674.34
2022-10-08T20:03:28.362Z,97670.28
2022-10-08T20:08:31.798Z,97674.06
2022-10-08T20:13:35.631Z,97661.56
2022-10-08T20:18:39.076Z,97669.22
2022-10-08T20:23:42.378Z,97664.28
2022-10-08T20:28:47.680Z,97657.47
2022-10-08T20:34:06.815Z,97651.25
2022-10-08T20:39:12.158Z,97657.22
2022-10-08T20:44:19.280Z,97652.06
2022-10-08T20:49:23.073Z,97652.63
2022-10-08T20:54:26.406Z,97648.06
2022-10-08T20:59:29.929Z,97644.78
2022-10-08T21:04:33.175Z,97646.19
2022-10-08T21:09:37.534Z,97648.63
2022-10-08T21:14:42.004Z,97647.28
2022-10-08T21:19:45.556Z,97641.09
2022-10-08T21:24:48.971Z,97636.50
2022-10-08T21:29:52.286Z,97637.34
2022-10-08T21:34:55.881Z,97638.50
2022-10-08T21:39:59.407Z,97630.91
2022-10-08T21:45:04.122Z,97643.19
2022-10-08T21:50:08.518Z,97636.91
2022-10-08T21:55:12.390Z,97629.34
2022-10-08T22:00:15.970Z,97632.91
2022-10-08T22:05:19.351Z,97635.41
2022-10-08T22:10:22.589Z,97631.06
2022-10-08T22:15:29.132Z,97638.91
2022-10-08T22:20:32.444Z,97629.97
2022-10-08T22:25:35.734Z,97636.22
2022-10-08T22:30:39.185Z,97627.47
2022-10-08T22:35:44.023Z,97630.72
2022-10-08T22:40:47.628Z,97623.09
2022-10-08T22:45:51.104Z,97624.16
2022-10-08T22:50:54.387Z,97623.06
2022-10-08T22:55:58.897Z,97623.56
2022-10-08T23:01:10.937Z,97621.13
2022-10-08T23:06:21.056Z,97622.19
2022-10-08T23:11:25.396Z,97620.53
2022-10-08T23:16:30.950Z,97612.63
2022-10-08T23:21:35.961Z,97611.47
2022-10-08T23:26:39.559Z,97604.94
2022-10-08T23:31:43.362Z,97608.47
2022-10-08T23:36:47.410Z,97601.94
2022-10-08T23:41:50.639Z,97596.53
2022-10-08T23:46:54.062Z,97593.06
2022-10-08T23:51:57.513Z,97588.75
2022-10-08T23:57:01.085Z,97591.81
